createdAt,value
2023-05-19T00:01:18.126Z,16.84
2023-05-19T00:06:27.143Z,16.82
2023-05-19T00:11:36.545Z,16.81
2023-05-19T00:16:44.143Z,16.80
2023-05-19T00:21:51.402Z,16.81
2023-05-19T00:26:58.517Z,16.80
2023-05-19T00:32:05.856Z,16.79
2023-05-19T00:37:12.974Z,16.78
2023-05-19T00:42:20.593Z,16.84
2023-05-19T00:47:28.230Z,16.79
2023-05-19T00:52:35.647Z,16.78
2023-05-19T00:57:43.866Z,16.78
2023-05-19T01:02:51.546Z,16.78
2023-05-19T01:07:58.593Z,16.75
2023-05-19T01:13:06.565Z,16.74
2023-05-19T01:18:16.274Z,16.78
2023-05-19T01:23:36.969Z,16.75
2023-05-19T01:29:00.910Z,16.75
2023-05-19T01:34:08.471Z,16.74
2023-05-19T01:39:16.458Z,16.72
2023-05-19T01:44:24.558Z,16.73
2023-05-19T01:49:31.858Z,16.72
2023-05-19T01:54:39.001Z,16.73
2023-05-19T01:59:53.917Z,16.73
2023-05-19T02:05:04.938Z,16.71
2023-05-19T02:10:13.302Z,16.70
2023-05-19T02:15:23.247Z,16.70
2023-05-19T02:20:30.885Z,16.71
2023-05-19T02:25:38.508Z,16.68
2023-05-19T02:30:45.783Z,16.67
2023-05-19T02:35:53.354Z,16.67
2023-05-19T02:41:01.148Z,16.67
2023-05-19T02:46:08.468Z,16.66
2023-05-19T02:51:15.861Z,16.66
2023-05-19T02:56:23.084Z,16.65
2023-05-19T03:01:30.230Z,16.67
2023-05-19T03:06:38.055Z,16.63
2023-05-19T03:11:45.091Z,16.65
2023-05-19T03:16:52.787Z,16.63
2023-05-19T03:21:59.959Z,16.64
2023-05-19T03:27:07.261Z,16.64
2023-05-19T03:32:14.417Z,16.62
2023-05-19T03:37:22.081Z,16.62
2023-05-19T03:42:29.692Z,16.63
2023-05-19T03:47:37.061Z,16.61
2023-05-19T03:52:47.100Z,16.60
2023-05-19T03:57:54.530Z,16.59
2023-05-19T04:03:01.978Z,16.60
2023-05-19T04:08:09.319Z,16.61
2023-05-19T04:13:16.650Z,16.62
2023-05-19T04:18:25.482Z,16.62
2023-05-19T04:23:33.549Z,16.60
2023-05-19T04:28:42.731Z,16.63
2023-05-19T04:33:50.181Z,16.62
2023-05-19T04:39:03.072Z,16.61
2023-05-19T04:44:11.076Z,16.58
2023-05-19T04:49:21.520Z,16.60
2023-05-19T04:54:29.008Z,16.60
2023-05-19T04:59:36.459Z,16.60
2023-05-19T05:04:44.497Z,16.60
2023-05-19T05:09:51.768Z,16.58
2023-05-19T05:14:59.583Z,16.56
2023-05-19T05:20:07.575Z,16.55
2023-05-19T05:25:16.730Z,16.57
2023-05-19T05:30:24.052Z,16.58
2023-05-19T05:35:31.426Z,16.56
2023-05-19T05:40:38.738Z,16.56
2023-05-19T05:45:46.054Z,16.57
2023-05-19T05:50:54.910Z,16.57
2023-05-19T05:56:02.191Z,16.58
2023-05-19T06:01:11.954Z,16.54
2023-05-19T06:06:18.845Z,16.54
2023-05-19T06:11:26.613Z,16.53
2023-05-19T06:16:33.676Z,16.54
2023-05-19T06:21:43.254Z,16.56
2023-05-19T06:26:50.979Z,16.53
2023-05-19T06:31:58.615Z,16.52
2023-05-19T06:37:06.362Z,16.54
2023-05-19T06:42:13.770Z,16.52
2023-05-19T06:47:21.122Z,16.53
2023-05-19T06:52:28.348Z,16.51
2023-05-19T06:57:36.498Z,16.49
2023-05-19T07:02:43.807Z,16.50
2023-05-19T07:07:50.914Z,16.50
2023-05-19T07:12:58.553Z,16.53
2023-05-19T07:18:06.058Z,16.51
2023-05-19T07:23:13.721Z,16.51
2023-05-19T07:28:22.448Z,16.51
2023-05-19T07:33:29.801Z,16.50
2023-05-19T07:38:37.089Z,16.51
2023-05-19T07:43:44.345Z,16.51
2023-05-19T07:48:51.652Z,16.49
2023-05-19T07:53:58.890Z,16.47
2023-05-19T07:59:06.193Z,16.47
2023-05-19T08:04:14.584Z,16.48
2023-05-19T08:09:22.047Z,16.49
2023-05-19T08:14:29.598Z,16.48
2023-05-19T08:19:36.996Z,16.48
2023-05-19T08:24:45.130Z,16.48
2023-05-19T08:29:52.711Z,16.44
2023-05-19T08:35:00.201Z,16.47
2023-05-19T08:40:09.271Z,16.46
2023-05-19T08:45:16.778Z,16.46
2023-05-19T08:50:26.556Z,16.42
2023-05-19T08:55:38.596Z,16.44
2023-05-19T09:00:46.143Z,16.45
2023-05-19T09:05:53.667Z,16.43
2023-05-19T09:11:01.117Z,16.44
2023-05-19T09:16:09.186Z,16.43
2023-05-19T09:21:16.734Z,16.41
2023-05-19T09:26:24.157Z,16.42
2023-05-19T09:31:34.283Z,16.41
2023-05-19T09:36:43.610Z,16.43
2023-05-19T09:41:53.013Z,16.39
2023-05-19T09:47:00.287Z,16.39
2023-05-19T09:52:07.939Z,16.39
2023-05-19T09:57:14.826Z,16.40
2023-05-19T10:02:24.882Z,16.38
2023-05-19T10:07:32.766Z,16.38
2023-05-19T10:12:40.205Z,16.39
2023-05-19T10:17:47.788Z,16.37
2023-05-19T10:22:55.534Z,16.40
2023-05-19T10:28:04.154Z,16.38
2023-05-19T10:33:14.282Z,16.40
2023-05-19T10:38:26.330Z,16.38
2023-05-19T10:43:40.566Z,16.41
2023-05-19T10:48:48.187Z,16.38
2023-05-19T10:53:55.677Z,16.36
2023-05-19T10:59:03.530Z,16.36
2023-05-19T11:04:12.796Z,16.36
2023-05-19T11:09:28.362Z,16.38
2023-05-19T11:14:41.868Z,16.38
2023-05-19T11:19:55.959Z,16.36
2023-05-19T11:25:03.068Z,16.36
2023-05-19T11:30:15.708Z,16.35
2023-05-19T11:35:23.090Z,16.36
2023-05-19T11:40:30.733Z,16.35
2023-05-19T11:45:37.888Z,16.37
2023-05-19T11:50:45.753Z,16.35
2023-05-19T11:55:53.190Z,16.34
2023-05-19T12:01:05.916Z,16.33
2023-05-19T12:06:17.950Z,16.34
2023-05-19T12:11:25.778Z,16.37
2023-05-19T12:16:38.979Z,16.34
2023-05-19T12:21:46.350Z,16.34
2023-05-19T12:26:53.621Z,16.33
2023-05-19T12:32:00.998Z,16.32
2023-05-19T12:37:08.255Z,16.33
2023-05-19T12:42:15.212Z,16.33
2023-05-19T12:47:23.112Z,16.31
2023-05-19T12:52:30.846Z,16.33
2023-05-19T12:57:39.017Z,16.30
2023-05-19T13:02:59.511Z,16.31
2023-05-19T13:08:09.449Z,16.32
2023-05-19T13:13:17.095Z,16.33
2023-05-19T13:18:24.812Z,16.30
2023-05-19T13:23:32.123Z,16.30
2023-05-19T13:28:39.218Z,16.29
2023-05-19T13:33:46.588Z,16.31
2023-05-19T13:38:53.673Z,16.28
2023-05-19T13:44:01.444Z,16.29
2023-05-19T13:49:09.337Z,16.30
2023-05-19T13:54:16.486Z,16.28
2023-05-19T13:59:23.847Z,16.27
2023-05-19T14:04:31.208Z,16.28
2023-05-19T14:09:38.618Z,16.29
2023-05-19T14:14:45.847Z,16.27
2023-05-19T14:19:52.825Z,16.28
2023-05-19T14:25:00.773Z,16.27
2023-05-19T14:30:08.820Z,16.27
2023-05-19T14:35:15.925Z,16.26
2023-05-19T14:40:23.284Z,16.28
2023-05-19T14:45:30.833Z,16.27
2023-05-19T14:50:38.136Z,16.27
2023-05-19T14:55:45.515Z,16.26
2023-05-19T15:00:52.847Z,16.28
2023-05-19T15:06:00.428Z,16.25
2023-05-19T15:11:07.774Z,16.28
2023-05-19T15:16:17.027Z,16.24
2023-05-19T15:21:25.945Z,16.26
2023-05-19T15:26:33.289Z,16.25
2023-05-19T15:31:40.450Z,16.23
2023-05-19T15:36:47.711Z,16.23
2023-05-19T15:41:55.241Z,16.23
2023-05-19T15:47:02.890Z,16.24
2023-05-19T15:52:10.426Z,16.25
2023-05-19T15:57:17.728Z,16.23
2023-05-19T16:02:25.158Z,16.22
2023-05-19T16:07:32.420Z,16.24
2023-05-19T16:12:39.812Z,16.23
2023-05-19T16:17:47.046Z,16.22
2023-05-19T16:22:54.099Z,16.21
2023-05-19T16:28:01.123Z,16.24
2023-05-19T16:33:08.237Z,16.19
2023-05-19T16:38:15.639Z,16.22
2023-05-19T16:43:22.996Z,16.22
2023-05-19T16:48:30.278Z,16.21
2023-05-19T16:53:37.306Z,16.21
2023-05-19T16:58:44.529Z,16.21
2023-05-19T17:03:51.965Z,16.17
2023-05-19T17:08:59.369Z,16.17
2023-05-19T17:14:08.518Z,16.17
2023-05-19T17:19:16.565Z,16.20
2023-05-19T17:24:23.626Z,16.20
2023-05-19T17:29:30.994Z,16.20
2023-05-19T17:34:39.586Z,16.18
2023-05-19T17:39:46.656Z,16.18
2023-05-19T17:44:54.127Z,16.17
2023-05-19T17:50:01.667Z,16.18
2023-05-19T17:55:10.041Z,16.19
2023-05-19T18:00:18.010Z,16.18
2023-05-19T18:05:25.893Z,16.18
2023-05-19T18:10:34.212Z,16.20
2023-05-19T18:15:41.733Z,16.17
2023-05-19T18:20:49.013Z,16.16
2023-05-19T18:25:56.279Z,16.13
2023-05-19T18:31:04.242Z,16.13
2023-05-19T18:36:11.721Z,16.16
2023-05-19T18:41:19.208Z,16.14
2023-05-19T18:46:26.748Z,16.16
2023-05-19T18:51:36.333Z,16.13
2023-05-19T18:56:43.561Z,16.13
2023-05-19T19:01:50.686Z,16.13
2023-05-19T19:06:57.954Z,16.17
2023-05-19T19:12:05.410Z,16.16
2023-05-19T19:17:12.604Z,16.17
2023-05-19T19:22:19.995Z,16.12
2023-05-19T19:27:31.654Z,16.10
2023-05-19T19:32:39.628Z,16.14
2023-05-19T19:37:47.304Z,16.11
2023-05-19T19:42:54.820Z,16.09
2023-05-19T19:48:02.507Z,16.11
2023-05-19T19:53:10.031Z,16.12
2023-05-19T19:58:17.449Z,16.10
2023-05-19T20:03:24.754Z,16.14
2023-05-19T20:08:32.079Z,16.10
2023-05-19T20:13:39.388Z,16.08
2023-05-19T20:18:46.628Z,16.08
2023-05-19T20:23:53.759Z,16.11
2023-05-19T20:29:00.993Z,16.10
2023-05-19T20:34:08.471Z,16.10
2023-05-19T20:39:15.677Z,16.06
2023-05-19T20:44:22.974Z,16.06
2023-05-19T20:49:30.291Z,16.08
2023-05-19T20:54:37.537Z,16.10
2023-05-19T20:59:44.671Z,16.09
2023-05-19T21:04:51.953Z,16.08
2023-05-19T21:09:59.439Z,16.07
2023-05-19T21:15:06.630Z,16.07
2023-05-19T21:20:14.399Z,16.08
2023-05-19T21:25:21.798Z,16.05
2023-05-19T21:30:29.221Z,16.05
2023-05-19T21:35:37.199Z,16.03
2023-05-19T21:40:44.398Z,16.05
2023-05-19T21:45:51.896Z,16.03
2023-05-19T21:50:59.041Z,16.05
2023-05-19T21:56:06.641Z,16.05
2023-05-19T22:01:14.715Z,16.05
2023-05-19T22:06:22.117Z,16.02
2023-05-19T22:11:29.191Z,16.02
2023-05-19T22:16:36.454Z,16.04
2023-05-19T22:21:43.844Z,16.04
2023-05-19T22:26:51.487Z,16.04
2023-05-19T22:31:58.743Z,16.03
2023-05-19T22:37:06.305Z,16.03
2023-05-19T22:42:13.545Z,15.99
2023-05-19T22:47:20.820Z,16.01
2023-05-19T22:52:28.431Z,16.01
2023-05-19T22:57:35.679Z,16.01
2023-05-19T23:02:44.260Z,16.01
2023-05-19T23:07:51.692Z,16.01
2023-05-19T23:12:58.796Z,16.04
2023-05-19T23:18:09.010Z,16.01
2023-05-19T23:23:16.412Z,16.03
2023-05-19T23:28:23.651Z,16.00
2023-05-19T23:33:30.706Z,15.99
2023-05-19T23:38:38.246Z,15.99
2023-05-19T23:43:45.598Z,15.99
2023-05-19T23:48:52.799Z,16.00
2023-05-19T23:54:00.278Z,15.98
2023-05-19T23:59:07.307Z,15.98
